Time;durP1;ratioP1;P1;durP2;ratioP2;P2;SDS_P1;SDS_P2;PMS_P1;PMS_P2;Temp;Humidity;BMP_temperature;BMP_pressure;BME280_temperature;BME280_humidity;BME280_pressure;Samples;Min_cycle;Max_cycle;Signal;HPM_P1;HPM_P2
2022/08/08 00:01:03;;;;;;;12.48;4.55;;;16.60;98.20;;;;;;5093106;28;20134;-70
2022/08/08 00:03:39;;;;;;;8.75;4.40;;;16.60;98.10;;;;;;5093334;28;20462;-70
2022/08/08 00:06:24;;;;;;;10.50;4.90;;;16.80;98.30;;;;;;5093049;28;20044;-70
2022/08/08 00:09:02;;;;;;;14.13;4.88;;;16.90;98.40;;;;;;5094204;28;20411;-70
2022/08/08 00:11:31;;;;;;;10.70;4.53;;;16.80;97.30;;;;;;5092857;28;20114;-70
2022/08/08 00:14:03;;;;;;;9.80;4.55;;;16.70;98.00;;;;;;5092974;28;20032;-70
2022/08/08 00:16:35;;;;;;;7.78;5.00;;;;;;;;;;5093255;28;20379;-70
2022/08/08 00:19:09;;;;;;;10.43;5.03;;;17.40;98.00;;;;;;5093149;28;20437;-70
2022/08/08 00:21:44;;;;;;;10.65;5.30;;;16.60;98.70;;;;;;5092686;28;20491;-70
2022/08/08 00:24:18;;;;;;;10.18;5.00;;;16.70;98.70;;;;;;5092658;28;20044;-70
2022/08/08 00:26:49;;;;;;;13.25;6.00;;;16.50;98.60;;;;;;5092735;28;20523;-70
2022/08/08 00:29:38;;;;;;;11.82;6.15;;;16.50;99.10;;;;;;5092740;28;20127;-70
2022/08/08 00:32:23;;;;;;;11.63;5.80;;;16.50;99.00;;;;;;5092513;28;20495;-70
2022/08/08 00:35:21;;;;;;;11.68;5.93;;;16.40;98.20;;;;;;5092844;28;20062;-70
2022/08/08 00:38:08;;;;;;;12.65;5.38;;;16.50;98.30;;;;;;5092798;28;20039;-70
2022/08/08 00:40:51;;;;;;;13.45;4.80;;;17.40;99.90;;;;;;5093671;28;20391;-70
2022/08/08 00:43:35;;;;;;;10.55;6.05;;;;;;;;;;5092190;28;20079;-70
2022/08/08 00:46:30;;;;;;;13.02;5.43;;;17.20;99.90;;;;;;5092524;28;20051;-70
2022/08/08 00:49:13;;;;;;;9.48;5.15;;;16.50;99.40;;;;;;5103239;27;20048;-70
2022/08/08 00:52:01;;;;;;;9.25;4.72;;;16.50;99.50;;;;;;5092570;28;20100;-70
2022/08/08 00:55:04;;;;;;;11.70;5.00;;;16.50;98.70;;;;;;5116857;27;20048;-70
2022/08/08 00:57:52;;;;;;;12.18;5.05;;;15.20;99.90;;;;;;5092719;28;20043;-70
2022/08/08 01:00:42;;;;;;;19.95;5.57;;;16.10;98.50;;;;;;5092398;28;20033;-70
2022/08/08 01:03:45;;;;;;;8.60;4.57;;;16.50;99.90;;;;;;5092056;28;20052;-70
2022/08/08 01:06:23;;;;;;;13.40;5.30;;;;;;;;;;5075388;28;20040;-70
2022/08/08 01:09:19;;;;;;;10.63;4.10;;;16.40;98.80;;;;;;5092016;28;20060;-70
2022/08/08 01:12:03;;;;;;;11.63;4.35;;;17.50;99.90;;;;;;5092270;28;20086;-70
2022/08/08 01:14:50;;;;;;;12.70;4.55;;;16.10;98.60;;;;;;5092210;28;20124;-70
2022/08/08 01:17:20;;;;;;;9.90;4.70;;;;;;;;;;5092029;28;20044;-70
2022/08/08 01:20:04;;;;;;;10.23;4.63;;;;;;;;;;5092070;28;20070;-70
2022/08/08 01:22:55;;;;;;;9.60;4.40;;;16.00;99.80;;;;;;5092296;28;20427;-70
2022/08/08 01:25:41;;;;;;;14.05;4.07;;;15.50;99.90;;;;;;5092212;28;20103;-70
2022/08/08 01:28:25;;;;;;;11.90;4.57;;;16.00;98.80;;;;;;5091957;28;20515;-70
2022/08/08 01:31:39;;;;;;;10.52;4.03;;;16.30;99.10;;;;;;5092191;28;20051;-70
2022/08/08 01:34:43;;;;;;;9.88;3.97;;;16.20;99.90;;;;;;5039033;28;20053;-70
2022/08/08 01:37:43;;;;;;;10.70;4.20;;;16.00;99.20;;;;;;5091782;28;20488;-70
2022/08/08 01:40:15;;;;;;;9.68;4.30;;;15.90;99.90;;;;;;5091832;28;20055;-70
2022/08/08 01:42:41;;;;;;;9.93;4.43;;;;;;;;;;5091756;28;20047;-70
2022/08/08 01:45:33;;;;;;;6.25;3.72;;;16.00;99.90;;;;;;5091990;28;20343;-70
2022/08/08 01:47:59;;;;;;;7.68;3.95;;;;;;;;;;5122837;28;20052;-70
2022/08/08 01:50:42;;;;;;;6.38;3.90;;;17.00;99.90;;;;;;5091769;28;20578;-70
2022/08/08 01:53:41;;;;;;;9.52;3.75;;;15.80;99.50;;;;;;5091731;28;20151;-70
2022/08/08 01:56:36;;;;;;;9.65;4.00;;;15.90;99.90;;;;;;5095757;28;20039;-70
2022/08/08 01:59:21;;;;;;;9.38;4.40;;;;;;;;;;5078620;28;20488;-70
2022/08/08 02:02:21;;;;;;;8.15;3.95;;;15.90;99.90;;;;;;5095651;28;20047;-70
2022/08/08 02:05:25;;;;;;;7.55;3.85;;;16.90;99.90;;;;;;5105688;27;20052;-70
2022/08/08 02:08:00;;;;;;;9.77;4.50;;;16.00;99.90;;;;;;5095131;28;20192;-69
2022/08/08 02:11:00;;;;;;;7.57;4.38;;;16.40;99.70;;;;;;5095597;28;20040;-70
2022/08/08 02:13:26;;;;;;;7.72;4.40;;;;;;;;;;5095094;28;20157;-70
2022/08/08 02:16:06;;;;;;;10.10;5.13;;;16.10;99.90;;;;;;5095122;28;20044;-70
2022/08/08 02:18:46;;;;;;;7.97;4.25;;;16.20;99.90;;;;;;5095309;28;20035;-70
2022/08/08 02:24:23;;;;;;;12.20;5.20;;;16.20;99.90;;;;;;5095101;28;20123;-70
2022/08/08 02:26:55;;;;;;;9.27;4.85;;;16.40;99.90;;;;;;5094980;28;20081;-70
2022/08/08 02:29:34;;;;;;;13.02;4.82;;;;;;;;;;5095048;28;20048;-70
2022/08/08 02:32:23;;;;;;;10.27;4.47;;;16.50;99.60;;;;;;5095076;28;20128;-70
2022/08/08 02:35:18;;;;;;;12.35;4.97;;;16.30;99.90;;;;;;5094830;28;20044;-70
2022/08/08 02:38:11;;;;;;;10.60;4.82;;;16.30;99.80;;;;;;5094837;28;20048;-70
2022/08/08 02:40:59;;;;;;;13.50;5.28;;;16.30;99.90;;;;;;5094984;28;20369;-70
2022/08/08 02:44:02;;;;;;;10.60;4.75;;;16.50;99.90;;;;;;5118931;27;20051;-70
2022/08/08 02:46:46;;;;;;;17.15;5.50;;;16.20;99.90;;;;;;5094624;28;20044;-70
2022/08/08 02:49:12;;;;;;;12.32;5.00;;;;;;;;;;5094826;28;20052;-70
2022/08/08 02:51:57;;;;;;;9.50;4.45;;;16.50;99.90;;;;;;5094681;28;20075;-70
2022/08/08 02:54:37;;;;;;;5.82;4.20;;;;;;;;;;5094419;28;20043;-70
2022/08/08 02:57:33;;;;;;;7.25;4.57;;;15.80;99.90;;;;;;5094622;28;20082;-70
2022/08/08 03:00:21;;;;;;;8.23;4.28;;;16.40;99.90;;;;;;5077453;28;20044;-70
2022/08/08 03:03:06;;;;;;;8.05;4.60;;;;;;;;;;5094526;28;20098;-70
2022/08/08 03:05:57;;;;;;;6.10;4.00;;;16.20;99.90;;;;;;5093889;28;20051;-70
2022/08/08 03:08:53;;;;;;;8.38;4.22;;;16.20;99.90;;;;;;5093928;28;20056;-70
2022/08/08 03:11:53;;;;;;;7.47;4.82;;;16.30;99.90;;;;;;5094160;28;20506;-70
2022/08/08 03:14:45;;;;;;;10.43;4.70;;;16.20;99.90;;;;;;5094108;28;20044;-70
2022/08/08 03:17:11;;;;;;;6.40;4.07;;;;;;;;;;5094101;28;20157;-70
2022/08/08 03:19:47;;;;;;;8.90;5.03;;;17.30;99.90;;;;;;5077409;28;20044;-70
2022/08/08 03:22:13;;;;;;;9.85;4.45;;;15.50;99.90;;;;;;5077070;28;20074;-70
2022/08/08 03:24:38;;;;;;;11.23;4.75;;;17.20;99.90;;;;;;5093894;28;20040;-70
2022/08/08 03:27:16;;;;;;;9.55;5.40;;;16.40;99.90;;;;;;5093765;28;20040;-70
2022/08/08 03:29:52;;;;;;;9.50;4.88;;;16.50;99.90;;;;;;5093800;28;20044;-70
2022/08/08 03:35:04;;;;;;;11.20;5.50;;;16.60;99.90;;;;;;5093521;28;20056;-70
2022/08/08 03:37:31;;;;;;;11.27;4.70;;;;;;;;;;5093583;28;20102;-70
2022/08/08 03:39:59;;;;;;;8.38;5.18;;;16.50;99.90;;;;;;5093598;28;20040;-70
2022/08/08 03:42:26;;;;;;;10.65;5.38;;;;;;;;;;5093841;28;20502;-70
2022/08/08 03:44:52;;;;;;;10.75;5.25;;;;;;;;;;5093506;28;20522;-70
2022/08/08 03:47:21;;;;;;;12.88;4.72;;;17.60;99.90;;;;;;5093371;28;20054;-70
2022/08/08 03:49:50;;;;;;;12.88;4.63;;;16.50;99.90;;;;;;5093378;28;20083;-70
2022/08/08 03:52:17;;;;;;;10.20;4.82;;;;;;;;;;5093385;28;20400;-70
2022/08/08 03:54:44;;;;;;;7.72;4.13;;;16.50;99.90;;;;;;5093243;28;20032;-70
2022/08/08 03:57:14;;;;;;;7.55;4.07;;;;;;;;;;5093115;28;20040;-70
2022/08/08 03:59:40;;;;;;;10.80;4.40;;;;;;;;;;5076180;28;20043;-70
2022/08/08 04:02:17;;;;;;;10.27;4.68;;;16.20;99.90;;;;;;5093173;28;20089;-70
2022/08/08 04:04:43;;;;;;;11.80;5.07;;;;;;;;;;5076274;28;20044;-70
2022/08/08 04:07:09;;;;;;;9.50;4.95;;;;;;;;;;5093019;28;20097;-70
2022/08/08 04:09:35;;;;;;;8.52;4.63;;;;;;;;;;5076226;28;20040;-70
2022/08/08 04:12:01;;;;;;;10.18;4.50;;;;;;;;;;5092870;28;20488;-70
2022/08/08 04:14:28;;;;;;;8.48;4.38;;;;;;;;;;5093249;28;20502;-70
2022/08/08 04:16:54;;;;;;;12.55;4.78;;;;;;;;;;5092269;28;20048;-70
2022/08/08 04:19:20;;;;;;;9.50;4.50;;;;;;;;;;5092847;28;20109;-70
2022/08/08 04:21:46;;;;;;;8.35;4.10;;;;;;;;;;5076027;28;20032;-70
2022/08/08 04:24:12;;;;;;;9.30;4.50;;;;;;;;;;5092786;28;20036;-70
2022/08/08 04:26:38;;;;;;;9.02;3.92;;;;;;;;;;5092621;28;20119;-70
2022/08/08 04:29:05;;;;;;;8.95;4.28;;;;;;;;;;5092822;28;20395;-70
2022/08/08 04:31:31;;;;;;;8.85;3.70;;;;;;;;;;5092528;28;20040;-70
2022/08/08 04:33:57;;;;;;;10.90;4.90;;;;;;;;;;5092455;28;20047;-70
2022/08/08 04:36:23;;;;;;;12.20;4.00;;;;;;;;;;5075624;28;20051;-70
2022/08/08 04:38:49;;;;;;;8.73;4.10;;;;;;;;;;5092600;28;20055;-70
2022/08/08 04:41:15;;;;;;;12.73;4.07;;;;;;;;;;5092573;28;20051;-70
2022/08/08 04:43:41;;;;;;;8.10;3.88;;;;;;;;;;5092461;28;20048;-70
2022/08/08 04:46:07;;;;;;;10.35;3.70;;;;;;;;;;5092407;28;20036;-70
2022/08/08 04:48:33;;;;;;;7.10;3.80;;;;;;;;;;5092334;28;20036;-70
2022/08/08 04:50:59;;;;;;;12.98;4.03;;;;;;;;;;5092299;28;20040;-70
2022/08/08 04:53:25;;;;;;;6.63;3.60;;;;;;;;;;5092349;28;20040;-70
2022/08/08 04:55:51;;;;;;;7.72;3.55;;;;;;;;;;5092164;28;20549;-70
2022/08/08 04:58:17;;;;;;;9.73;3.63;;;;;;;;;;5092580;28;20067;-70
2022/08/08 05:00:43;;;;;;;8.07;3.63;;;;;;;;;;5092200;28;20099;-70
2022/08/08 05:03:10;;;;;;;7.97;3.70;;;;;;;;;;5075623;28;20046;-70
2022/08/08 05:05:36;;;;;;;7.25;3.67;;;;;;;;;;5092443;28;20113;-70
2022/08/08 05:08:02;;;;;;;7.07;3.65;;;;;;;;;;5092144;28;20052;-70
2022/08/08 05:10:28;;;;;;;9.20;3.63;;;;;;;;;;5075287;28;20096;-70
2022/08/08 05:12:55;;;;;;;9.48;3.83;;;16.80;99.90;;;;;;5092081;28;20039;-70
2022/08/08 05:15:22;;;;;;;9.98;3.60;;;16.80;99.90;;;;;;5093329;28;20043;-70
2022/08/08 05:17:48;;;;;;;12.15;3.80;;;;;;;;;;5092322;28;20051;-70
2022/08/08 05:20:14;;;;;;;10.55;3.85;;;;;;;;;;5092234;28;20384;-70
2022/08/08 05:22:40;;;;;;;12.88;4.10;;;;;;;;;;5075400;28;20463;-70
2022/08/08 05:25:06;;;;;;;11.90;3.95;;;;;;;;;;5075198;28;20124;-70
2022/08/08 05:27:32;;;;;;;12.95;3.78;;;;;;;;;;5092994;28;20174;-70
2022/08/08 05:29:58;;;;;;;8.93;3.85;;;;;;;;;;5096437;28;20424;-70
2022/08/08 05:32:24;;;;;;;9.35;3.70;;;;;;;;;;5095960;28;20036;-70
2022/08/08 05:34:52;;;;;;;8.75;3.60;;;17.30;99.90;;;;;;5097318;28;20044;-70
2022/08/08 05:37:29;;;;;;;10.10;3.75;;;17.20;99.90;;;;;;5096404;28;20123;-70
2022/08/08 05:39:55;;;;;;;5.55;3.40;;;;;;;;;;5097214;28;20043;-70
2022/08/08 05:42:45;;;;;;;6.85;3.30;;;17.10;99.90;;;;;;5096130;28;20442;-70
2022/08/08 05:45:15;;;;;;;8.27;2.85;;;17.30;99.90;;;;;;5095844;28;20057;-70
2022/08/08 05:47:41;;;;;;;11.57;3.20;;;;;;;;;;5095759;28;20036;-70
2022/08/08 05:50:08;;;;;;;7.63;2.80;;;17.50;99.90;;;;;;5095915;28;20044;-70
2022/08/08 05:52:34;;;;;;;6.63;2.30;;;;;;;;;;5095807;28;20123;-70
2022/08/08 05:55:10;;;;;;;3.85;2.40;;;17.40;99.90;;;;;;5078609;28;20127;-70
2022/08/08 05:57:38;;;;;;;7.43;2.63;;;18.00;99.90;;;;;;5095498;28;20119;-70
2022/08/08 06:00:07;;;;;;;5.60;2.20;;;17.60;99.90;;;;;;5095463;28;20040;-70
2022/08/08 06:05:21;;;;;;;10.70;2.60;;;17.50;99.90;;;;;;5095328;28;20491;-70
2022/08/08 06:07:48;;;;;;;7.80;2.38;;;17.70;99.90;;;;;;5095278;28;20180;-70
2022/08/08 06:10:15;;;;;;;7.82;2.40;;;;;;;;;;5095226;28;20055;-70
2022/08/08 06:12:42;;;;;;;4.47;1.90;;;18.00;99.90;;;;;;5095478;28;20143;-70
2022/08/08 06:15:10;;;;;;;6.50;1.98;;;18.40;99.90;;;;;;5095339;28;20076;-70
2022/08/08 06:17:39;;;;;;;4.85;2.30;;;17.70;99.90;;;;;;5095345;28;20051;-70
2022/08/08 06:20:10;;;;;;;11.88;2.47;;;17.90;99.90;;;;;;5078321;28;20044;-70
2022/08/08 06:22:37;;;;;;;4.28;2.00;;;;;;;;;;5095060;28;20127;-70
2022/08/08 06:25:04;;;;;;;6.82;2.35;;;17.90;99.90;;;;;;5094949;28;20529;-70
2022/08/08 06:27:50;;;;;;;9.18;2.33;;;18.00;99.30;;;;;;5095141;28;20059;-70
2022/08/08 06:30:16;;;;;;;7.13;2.13;;;;;;;;;;5095259;28;20118;-70
2022/08/08 06:32:50;;;;;;;6.68;1.90;;;18.20;99.20;;;;;;5094695;28;20052;-70
2022/08/08 06:35:17;;;;;;;5.57;2.30;;;17.80;99.90;;;;;;5129135;27;20032;-70
2022/08/08 06:37:45;;;;;;;7.53;2.00;;;18.30;99.90;;;;;;5094909;28;20036;-70
2022/08/08 06:40:13;;;;;;;10.73;2.30;;;;;;;;;;5094104;28;20080;-70
2022/08/08 06:42:45;;;;;;;10.98;2.53;;;18.20;99.70;;;;;;5094782;28;20052;-70
2022/08/08 06:45:12;;;;;;;7.43;1.93;;;18.50;99.70;;;;;;5077807;28;20052;-70
2022/08/08 06:47:38;;;;;;;6.63;2.28;;;;;;;;;;5094562;28;20286;-70
2022/08/08 06:50:05;;;;;;;5.70;2.22;;;18.50;99.40;;;;;;5094536;28;20040;-70
2022/08/08 06:52:31;;;;;;;5.97;2.10;;;18.60;98.90;;;;;;5094627;28;20055;-70
2022/08/08 06:55:00;;;;;;;6.30;2.00;;;18.50;99.50;;;;;;5094662;28;20036;-70
2022/08/08 06:57:26;;;;;;;7.43;2.58;;;;;;;;;;5094224;28;20063;-70
2022/08/08 06:59:55;;;;;;;7.72;2.22;;;18.60;99.40;;;;;;5094255;28;20071;-70
2022/08/08 07:02:25;;;;;;;5.97;2.45;;;;;;;;;;5094326;28;20040;-70
2022/08/08 07:05:03;;;;;;;10.40;2.53;;;18.40;99.40;;;;;;5094194;28;20083;-70
2022/08/08 07:07:47;;;;;;;5.38;2.22;;;18.50;98.60;;;;;;5094149;28;20056;-70
2022/08/08 07:10:18;;;;;;;7.32;2.05;;;18.50;99.30;;;;;;5094225;28;20379;-70
2022/08/08 07:12:53;;;;;;;5.68;2.33;;;18.60;99.50;;;;;;5094002;28;20488;-70
2022/08/08 07:15:35;;;;;;;8.88;2.10;;;18.70;99.50;;;;;;5094247;28;20630;-70
2022/08/08 07:18:08;;;;;;;4.90;2.13;;;;;;;;;;5093979;28;20115;-70
2022/08/08 07:20:41;;;;;;;5.28;2.00;;;18.40;99.90;;;;;;5093904;28;20036;-70
2022/08/08 07:23:21;;;;;;;7.00;2.20;;;18.50;99.60;;;;;;5093867;28;20047;-70
2022/08/08 07:25:50;;;;;;;7.20;2.00;;;18.70;99.50;;;;;;5077057;28;20053;-70
2022/08/08 07:28:24;;;;;;;6.97;2.15;;;18.50;99.50;;;;;;5094195;28;20040;-70
2022/08/08 07:30:50;;;;;;;6.65;2.30;;;;;;;;;;5093920;28;20044;-70
2022/08/08 07:33:21;;;;;;;3.67;2.00;;;18.60;99.40;;;;;;5093584;28;20076;-70
2022/08/08 07:35:49;;;;;;;8.13;2.10;;;18.80;99.50;;;;;;5094936;28;20047;-70
2022/08/08 07:38:17;;;;;;;4.78;2.10;;;;;;;;;;5094946;28;20044;-71
2022/08/08 07:40:44;;;;;;;9.10;2.45;;;18.80;99.30;;;;;;5093523;28;20050;-69
2022/08/08 07:43:12;;;;;;;7.97;2.45;;;19.00;99.20;;;;;;5093403;28;20118;-70
2022/08/08 07:45:38;;;;;;;5.22;2.30;;;;;;;;;;5093406;28;20492;-69
2022/08/08 07:48:04;;;;;;;7.50;2.35;;;;;;;;;;5093218;28;20503;-70
2022/08/08 07:50:35;;;;;;;10.80;2.60;;;19.70;99.90;;;;;;5092651;28;20551;-70
2022/08/08 07:53:17;;;;;;;3.53;2.15;;;18.80;99.00;;;;;;5094245;28;20086;-70
2022/08/08 07:55:43;;;;;;;6.90;2.30;;;;;;;;;;5076197;28;20044;-70
2022/08/08 07:58:37;;;;;;;6.85;2.80;;;19.00;99.20;;;;;;5093114;28;20043;-70
2022/08/08 08:01:14;;;;;;;8.77;2.60;;;19.10;99.10;;;;;;5076475;28;20048;-71
2022/08/08 08:04:02;;;;;;;6.50;2.67;;;18.60;99.90;;;;;;5076294;28;20044;-70
2022/08/08 08:06:32;;;;;;;5.70;2.40;;;19.10;99.00;;;;;;5093098;28;20052;-70
2022/08/08 08:09:08;;;;;;;6.85;2.70;;;;;;;;;;5053540;28;20068;-70
2022/08/08 08:11:36;;;;;;;6.05;3.10;;;19.20;98.70;;;;;;5036084;28;20041;-70
2022/08/08 08:14:04;;;;;;;7.38;2.58;;;;;;;;;;5052518;28;20405;-70
2022/08/08 08:16:33;;;;;;;6.03;2.67;;;19.10;99.10;;;;;;5053015;28;20072;-70
2022/08/08 08:19:01;;;;;;;7.57;2.60;;;19.40;99.00;;;;;;5053916;28;20134;-70
2022/08/08 08:21:40;;;;;;;10.40;3.05;;;19.30;99.10;;;;;;5052486;28;20052;-69
2022/08/08 08:24:06;;;;;;;7.18;2.70;;;19.80;99.90;;;;;;5052407;28;20045;-70
2022/08/08 08:26:32;;;;;;;8.77;2.95;;;;;;;;;;5052424;28;20126;-70
2022/08/08 08:28:58;;;;;;;7.93;2.97;;;;;;;;;;5035662;28;20401;-70
2022/08/08 08:31:24;;;;;;;6.80;2.60;;;;;;;;;;5052177;28;20041;-70
2022/08/08 08:33:50;;;;;;;11.75;3.10;;;;;;;;;;5052053;28;20053;-70
2022/08/08 08:36:19;;;;;;;6.22;2.63;;;;;;;;;;5052587;28;20043;-70
2022/08/08 08:38:46;;;;;;;6.00;3.00;;;;;;;;;;5052649;28;20528;-70
2022/08/08 08:41:13;;;;;;;8.65;2.78;;;19.30;99.90;;;;;;5052336;28;20120;-70
2022/08/08 08:43:40;;;;;;;9.32;2.67;;;19.30;98.70;;;;;;5052108;28;20102;-70
2022/08/08 08:46:11;;;;;;;6.57;2.78;;;19.20;98.00;;;;;;5035727;28;20509;-70
2022/08/08 08:48:37;;;;;;;6.88;3.03;;;;;;;;;;5052344;28;20045;-70
2022/08/08 08:51:09;;;;;;;6.75;3.50;;;19.20;99.10;;;;;;5035951;28;20123;-70
2022/08/08 08:53:40;;;;;;;8.50;2.92;;;19.20;98.70;;;;;;5052082;28;20045;-70
2022/08/08 08:56:06;;;;;;;7.93;2.72;;;17.90;99.90;;;;;;5051976;28;20076;-70
2022/08/08 08:58:40;;;;;;;7.47;3.20;;;19.10;99.20;;;;;;5051891;28;20473;-70
2022/08/08 09:01:12;;;;;;;5.57;2.90;;;19.30;99.10;;;;;;5052055;28;20036;-70
2022/08/08 09:03:39;;;;;;;8.07;2.87;;;19.50;99.90;;;;;;5052992;28;20402;-70
2022/08/08 09:06:12;;;;;;;9.00;2.78;;;19.40;99.10;;;;;;5052058;28;20128;-70
2022/08/08 09:08:42;;;;;;;7.85;2.80;;;19.40;99.10;;;;;;5086472;28;20090;-70
2022/08/08 09:11:08;;;;;;;7.90;2.90;;;;;;;;;;5092257;28;20040;-70
2022/08/08 09:13:36;;;;;;;10.30;3.00;;;19.10;99.00;;;;;;5092099;28;20075;-70
2022/08/08 09:16:03;;;;;;;5.65;2.88;;;19.10;99.00;;;;;;5092101;28;20043;-70
2022/08/08 09:18:32;;;;;;;8.18;2.88;;;19.50;99.90;;;;;;5092058;28;20032;-70
2022/08/08 09:21:00;;;;;;;5.32;2.58;;;19.10;99.00;;;;;;5093274;28;20074;-70
2022/08/08 09:23:28;;;;;;;7.38;3.00;;;19.40;99.00;;;;;;5092045;28;20396;-70
2022/08/08 09:26:17;;;;;;;8.02;2.55;;;19.10;99.90;;;;;;5092063;28;20044;-70
2022/08/08 09:28:44;;;;;;;8.40;2.78;;;;;;;;;;5092250;28;20035;-70
2022/08/08 09:31:15;;;;;;;5.45;2.40;;;19.20;99.00;;;;;;5091988;28;20036;-70
2022/08/08 09:33:44;;;;;;;8.97;2.50;;;19.30;98.70;;;;;;5091822;28;20052;-70
2022/08/08 09:36:21;;;;;;;8.15;2.90;;;19.30;98.60;;;;;;5093177;28;20503;-70
2022/08/08 09:38:53;;;;;;;7.07;2.65;;;19.70;98.70;;;;;;5091840;28;20132;-70
2022/08/08 09:41:26;;;;;;;;;;;19.40;98.90;;;;;;5092353;28;20235;-70
2022/08/08 09:43:57;;;;;;;4.07;2.67;;;19.60;98.50;;;;;;5091891;28;19916;-70
2022/08/08 09:46:23;;;;;;;6.47;2.83;;;;;;;;;;5092145;28;20044;-70
2022/08/08 09:48:49;;;;;;;9.38;3.10;;;;;;;;;;5074946;28;20079;-70
2022/08/08 09:51:22;;;;;;;7.55;2.78;;;20.10;99.90;;;;;;5091757;28;20048;-70
2022/08/08 09:53:51;;;;;;;8.63;2.95;;;20.00;98.30;;;;;;5091743;28;20055;-70
2022/08/08 09:56:18;;;;;;;8.77;3.17;;;;;;;;;;5091796;28;20048;-70
2022/08/08 09:59:02;;;;;;;6.82;3.00;;;19.90;98.20;;;;;;5091590;28;20508;-70
2022/08/08 10:01:31;;;;;;;8.27;2.60;;;20.00;98.10;;;;;;5091939;28;20039;-70
2022/08/08 10:03:59;;;;;;;5.63;2.60;;;20.00;97.70;;;;;;5091963;28;20054;-71
2022/08/08 10:06:25;;;;;;;6.53;2.50;;;;;;;;;;5091595;28;20123;-70
2022/08/08 10:08:52;;;;;;;9.90;2.83;;;19.80;99.90;;;;;;5091337;28;20131;-70
2022/08/08 10:11:20;;;;;;;9.85;2.58;;;20.90;99.90;;;;;;5092551;28;20048;-70
2022/08/08 10:14:03;;;;;;;10.48;2.42;;;20.70;99.90;;;;;;5092980;28;20075;-70
2022/08/08 10:16:40;;;;;;;8.13;2.90;;;20.80;97.20;;;;;;5095225;28;20485;-68
2022/08/08 10:19:10;;;;;;;8.50;2.60;;;21.10;96.70;;;;;;5095124;28;20105;-69
2022/08/08 10:21:36;;;;;;;5.43;2.15;;;21.80;99.90;;;;;;5094923;28;20032;-69
2022/08/08 10:24:10;;;;;;;8.23;2.30;;;21.10;96.10;;;;;;5095213;28;20430;-69
2022/08/08 10:26:45;;;;;;;6.65;2.78;;;21.20;95.90;;;;;;5094915;28;20040;-69
2022/08/08 10:29:12;;;;;;;7.70;2.60;;;20.10;99.50;;;;;;5096296;28;20468;-70
2022/08/08 10:34:27;;;;;;;7.97;2.60;;;21.00;95.60;;;;;;5094740;28;20078;-69
2022/08/08 10:36:55;;;;;;;7.05;2.97;;;;;;;;;;5094682;28;20055;-69
2022/08/08 10:39:26;;;;;;;9.30;2.20;;;21.10;94.50;;;;;;5094872;28;20048;-69
2022/08/08 10:41:58;;;;;;;4.72;2.20;;;20.70;99.60;;;;;;5094837;28;20054;-69
2022/08/08 10:44:41;;;;;;;3.92;2.20;;;20.40;99.60;;;;;;5077891;28;20119;-69
2022/08/08 10:47:15;;;;;;;5.50;2.08;;;21.20;95.60;;;;;;5095787;28;20032;-69
2022/08/08 10:49:48;;;;;;;7.63;2.17;;;21.90;99.50;;;;;;5094488;28;20543;-69
2022/08/08 10:52:27;;;;;;;7.13;2.13;;;19.90;99.00;;;;;;5094407;28;20051;-69
2022/08/08 10:54:58;;;;;;;9.65;2.22;;;21.00;94.90;;;;;;5094169;28;20459;-69
2022/08/08 10:57:24;;;;;;;4.38;1.90;;;20.50;99.10;;;;;;5094392;28;20472;-69
2022/08/08 10:59:51;;;;;;;7.22;2.10;;;;;;;;;;5094305;28;20100;-69
2022/08/08 11:02:46;;;;;;;5.65;2.20;;;21.20;95.20;;;;;;5094352;28;20036;-69
2022/08/08 11:05:13;;;;;;;3.03;2.03;;;22.10;99.10;;;;;;5115081;27;20500;-69
2022/08/08 11:07:41;;;;;;;6.55;2.28;;;21.60;94.30;;;;;;5093892;28;20522;-69
2022/08/08 11:10:07;;;;;;;8.38;2.20;;;22.00;98.40;;;;;;5094128;28;20131;-69
2022/08/08 11:12:42;;;;;;;8.15;2.30;;;22.40;98.60;;;;;;5094138;28;20070;-69
2022/08/08 11:15:15;;;;;;;9.27;2.40;;;21.90;98.60;;;;;;5094159;28;20116;-69
2022/08/08 11:17:42;;;;;;;5.88;2.17;;;22.30;98.60;;;;;;5094339;28;20040;-69
2022/08/08 11:20:10;;;;;;;6.22;2.20;;;22.30;95.80;;;;;;5093797;28;20036;-69
2022/08/08 11:22:37;;;;;;;9.73;2.40;;;21.30;98.70;;;;;;5093812;28;20122;-69
2022/08/08 11:25:05;;;;;;;4.45;2.00;;;22.10;98.80;;;;;;5093530;28;20059;-69
2022/08/08 11:27:34;;;;;;;5.97;2.00;;;22.10;98.70;;;;;;5094118;28;20108;-69
2022/08/08 11:30:02;;;;;;;6.20;1.85;;;20.90;98.30;;;;;;5093771;28;20044;-69
2022/08/08 11:32:32;;;;;;;8.77;2.65;;;22.00;98.70;;;;;;5093658;28;20488;-69
2022/08/08 11:35:08;;;;;;;4.15;1.98;;;20.60;94.90;;;;;;5095122;28;20388;-69
2022/08/08 11:37:35;;;;;;;4.05;1.95;;;21.80;98.40;;;;;;5093650;28;20055;-70
2022/08/08 11:40:03;;;;;;;6.70;2.05;;;21.30;93.70;;;;;;5093594;28;20075;-69
2022/08/08 11:42:30;;;;;;;4.35;1.92;;;20.00;97.70;;;;;;5093577;28;20040;-69
2022/08/08 11:44:57;;;;;;;6.85;1.90;;;20.80;97.70;;;;;;5093455;28;20161;-69
2022/08/08 11:47:23;;;;;;;3.85;1.67;;;21.70;97.60;;;;;;5093332;28;20044;-69
2022/08/08 11:49:53;;;;;;;4.63;1.80;;;21.00;97.60;;;;;;5093336;28;20050;-69
2022/08/08 11:52:20;;;;;;;5.30;1.80;;;20.20;97.40;;;;;;5094598;28;20084;-69
2022/08/08 11:54:45;;;;;;;3.38;1.80;;;21.10;94.80;;;;;;5093419;28;20083;-69
2022/08/08 11:57:24;;;;;;;5.32;1.90;;;21.40;93.60;;;;;;5076596;28;20101;-69
2022/08/08 11:59:57;;;;;;;2.05;1.20;;;21.00;97.00;;;;;;5093267;28;20075;-69
2022/08/08 12:02:26;;;;;;;4.03;1.67;;;21.70;96.40;;;;;;5093107;28;20119;-69
2022/08/08 12:05:07;;;;;;;5.13;1.90;;;21.40;96.10;;;;;;5093297;28;20051;-69
2022/08/08 12:07:48;;;;;;;8.82;2.05;;;22.30;96.50;;;;;;5092943;28;20113;-69
2022/08/08 12:10:15;;;;;;;4.60;2.00;;;21.10;96.10;;;;;;5092995;28;20047;-69
2022/08/08 12:12:46;;;;;;;5.88;2.03;;;21.70;96.20;;;;;;5076547;28;20040;-69
2022/08/08 12:15:24;;;;;;;5.03;1.80;;;21.20;92.30;;;;;;5093404;28;20040;-69
2022/08/08 12:17:50;;;;;;;4.80;1.75;;;;;;;;;;5093148;28;20131;-69
2022/08/08 12:20:16;;;;;;;4.03;1.80;;;;;;;;;;5092663;28;20032;-69
2022/08/08 12:22:48;;;;;;;3.92;1.60;;;21.70;90.30;;;;;;5092768;28;20052;-69
2022/08/08 12:25:25;;;;;;;7.03;1.90;;;20.90;95.70;;;;;;5092757;28;20043;-70
2022/08/08 12:27:52;;;;;;;4.72;1.63;;;;;;;;;;5093157;28;20447;-70
2022/08/08 12:30:29;;;;;;;5.00;1.80;;;;;;;;;;5092598;28;20090;-70
2022/08/08 12:32:58;;;;;;;3.85;1.90;;;;;;;;;;5092642;28;20083;-70
2022/08/08 12:35:26;;;;;;;5.35;1.85;;;21.40;96.20;;;;;;5075665;28;20047;-70
2022/08/08 12:38:11;;;;;;;3.72;1.50;;;21.80;92.30;;;;;;5092191;28;20051;-70
2022/08/08 12:40:48;;;;;;;6.30;1.80;;;21.60;92.40;;;;;;5093914;28;20447;-69
2022/08/08 12:43:15;;;;;;;4.43;1.80;;;22.70;92.50;;;;;;5092570;28;20055;-69
2022/08/08 12:45:42;;;;;;;5.13;1.80;;;21.50;96.00;;;;;;5092394;28;20042;-69
2022/08/08 12:48:21;;;;;;;5.68;2.33;;;22.30;96.10;;;;;;5075584;28;20055;-70
2022/08/08 12:50:55;;;;;;;3.63;1.80;;;22.60;96.10;;;;;;5075552;28;20047;-70
2022/08/08 12:53:27;;;;;;;3.58;1.63;;;21.10;95.30;;;;;;5075363;28;20131;-70
2022/08/08 12:56:02;;;;;;;6.65;1.73;;;22.80;95.50;;;;;;5092265;28;20071;-69
2022/08/08 12:58:49;;;;;;;5.40;1.80;;;21.70;91.00;;;;;;5092193;28;20047;-69
2022/08/08 13:01:15;;;;;;;3.78;1.70;;;20.90;95.10;;;;;;5092416;28;20043;-69
2022/08/08 13:03:46;;;;;;;3.13;1.60;;;22.20;95.50;;;;;;5092097;28;20395;-69
2022/08/08 13:06:17;;;;;;;8.55;1.80;;;21.70;91.40;;;;;;5092143;28;20044;-70
2022/08/08 13:08:43;;;;;;;4.55;2.30;;;;;;;;;;5091856;28;20185;-70
2022/08/08 13:11:22;;;;;;;6.47;1.90;;;21.60;95.50;;;;;;5092166;28;20048;-69
2022/08/08 13:14:09;;;;;;;5.05;1.88;;;21.70;91.80;;;;;;5092026;28;20055;-69
2022/08/08 13:16:36;;;;;;;6.68;2.10;;;21.60;96.40;;;;;;5093250;28;20044;-70
2022/08/08 13:19:03;;;;;;;4.70;1.90;;;20.30;96.40;;;;;;5092118;28;20380;-69
2022/08/08 13:21:30;;;;;;;4.78;1.98;;;20.50;96.60;;;;;;5092066;28;20036;-70
2022/08/08 13:23:57;;;;;;;5.18;2.00;;;21.10;96.80;;;;;;5093221;28;20086;-69
2022/08/08 13:26:31;;;;;;;4.65;1.92;;;19.80;92.10;;;;;;5091946;28;20119;-69
2022/08/08 13:28:58;;;;;;;4.88;2.10;;;21.80;97.10;;;;;;5092017;28;20484;-69
2022/08/08 13:31:24;;;;;;;4.78;2.00;;;;;;;;;;5092261;28;20048;-69
2022/08/08 13:33:50;;;;;;;7.32;2.92;;;22.00;97.40;;;;;;5091922;28;20075;-69
2022/08/08 13:36:16;;;;;;;9.75;2.40;;;;;;;;;;5075070;28;20039;-69
2022/08/08 13:38:42;;;;;;;7.15;2.40;;;20.70;97.20;;;;;;5092252;28;20043;-69
2022/08/08 13:41:08;;;;;;;7.47;2.17;;;;;;;;;;5075014;28;20404;-69
2022/08/08 13:43:34;;;;;;;4.15;2.20;;;;;;;;;;5091795;28;20484;-69
2022/08/08 13:46:11;;;;;;;3.75;2.05;;;21.10;92.30;;;;;;5075054;28;20048;-69
2022/08/08 13:48:45;;;;;;;9.63;2.42;;;23.10;92.90;;;;;;5092863;28;20059;-70
2022/08/08 13:51:10;;;;;;;5.00;2.30;;;22.20;98.10;;;;;;5095704;28;20043;-69
2022/08/08 13:53:39;;;;;;;7.85;2.20;;;;;;;;;;5078628;28;20052;-69
2022/08/08 13:56:07;;;;;;;9.90;2.65;;;22.00;98.10;;;;;;5078964;28;20097;-70
2022/08/08 13:58:34;;;;;;;8.18;2.00;;;;;;;;;;5096873;28;20356;-70
2022/08/08 14:01:17;;;;;;;6.38;2.10;;;22.20;98.00;;;;;;5095367;28;20040;-70